Stolt Spray — ZCSQ9 — position and weather

sailwx.info

Track history (hours):
 
Tides and Currents Weather Stations Pressure Air Temp Water Temp Dewpoint Dewpoint Depression Visibility Wind Speed Wind Dir Waves Ship Positions

Stolt Spray

Last reported at 2017-Mar-24 13:16 UTC. Time now 2017-Mar-28 17:35 UTC.
Position N 25°47' W 079°31'.

Length 163 m; draft 10.6 m.

Type: Ship (hazmat cat B). MMSI: 319591000.

Date/timePositionNaut miles runAvg speedWind from/ knotsBaromVisibWave heightAir tempDewpointWater temp
2017-Mar-24 13:16N 25°47' W 079°31'  
2017-Mar-16 10:14N 38°55' W 030°17'913.8
2017-Mar-16 09:33N 38°59' W 030°06'1413.7
2017-Mar-16 08:34N 39°05' W 029°50'1413.7
2017-Mar-16 07:33N 39°12' W 029°35'1413.9
2017-Mar-16 06:33N 39°18' W 029°19'1413.8
2017-Mar-16 05:34N 39°25' W 029°04'1413.6
2017-Mar-16 04:33N 39°32' W 028°48'1313.5
2017-Mar-16 03:33N 39°39' W 028°33'1313.4
2017-Mar-16 02:33N 39°46' W 028°18'21213.8
2017-Mar-15 11:14N 41°33' W 024°17'913.4
2017-Mar-15 10:33N 41°37' W 024°07'1313.4
2017-Mar-15 09:33N 41°44' W 023°51'1513.5
2017-Mar-15 08:28N 41°51' W 023°34'1213.3
2017-Mar-15 07:33N 41°57' W 023°20'1413.3
2017-Mar-15 06:31N 42°04' W 023°04'1713.4
2017-Mar-15 05:15N 42°13' W 022°44'  
Track history (hours):
 
Tides and Currents Weather Stations Pressure Air Temp Water Temp Dewpoint Dewpoint Depression Visibility Wind Speed Wind Dir Waves Ship Positions

Stolt Spray

Last reported at 2017-Mar-24 13:16 UTC. Time now 2017-Mar-28 17:35 UTC.
Position N 25°47' W 079°31'.

Length 163 m; draft 10.6 m.

Type: Ship (hazmat cat B). MMSI: 319591000.

Date/timePositionNaut miles runAvg speedWind from/ knotsBaromVisibWave heightAir tempDewpointWater temp
2017-Mar-24 13:16N 25°47' W 079°31'  
2017-Mar-16 10:14N 38°55' W 030°17'913.8
2017-Mar-16 09:33N 38°59' W 030°06'1413.7
2017-Mar-16 08:34N 39°05' W 029°50'1413.7
2017-Mar-16 07:33N 39°12' W 029°35'1413.9
2017-Mar-16 06:33N 39°18' W 029°19'1413.8
2017-Mar-16 05:34N 39°25' W 029°04'1413.6
2017-Mar-16 04:33N 39°32' W 028°48'1313.5
2017-Mar-16 03:33N 39°39' W 028°33'1313.4
2017-Mar-16 02:33N 39°46' W 028°18'21213.8
2017-Mar-15 11:14N 41°33' W 024°17'913.4
2017-Mar-15 10:33N 41°37' W 024°07'1313.4
2017-Mar-15 09:33N 41°44' W 023°51'1513.5
2017-Mar-15 08:28N 41°51' W 023°34'1213.3
2017-Mar-15 07:33N 41°57' W 023°20'1413.3
2017-Mar-15 06:31N 42°04' W 023°04'1713.4
2017-Mar-15 05:15N 42°13' W 022°44'  

Dump ship's entire track history